sensor_id;sensor_type;location;lat;lon;timestamp;P1;durP1;ratioP1;P2;durP2;ratioP2
10458;SDS011;5277;48.722;8.736;2024-02-21T00:00:45;8.80;;;4.13;;
10458;SDS011;5277;48.722;8.736;2024-02-21T00:03:11;7.87;;;3.83;;
10458;SDS011;5277;48.722;8.736;2024-02-21T00:05:37;11.67;;;4.20;;
10458;SDS011;5277;48.722;8.736;2024-02-21T00:08:02;12.67;;;4.40;;
10458;SDS011;5277;48.722;8.736;2024-02-21T00:10:28;14.63;;;4.33;;
10458;SDS011;5277;48.722;8.736;2024-02-21T00:12:54;9.77;;;3.93;;
10458;SDS011;5277;48.722;8.736;2024-02-21T00:15:19;9.07;;;4.30;;
10458;SDS011;5277;48.722;8.736;2024-02-21T00:17:46;10.63;;;4.00;;
10458;SDS011;5277;48.722;8.736;2024-02-21T00:20:12;9.57;;;4.33;;
10458;SDS011;5277;48.722;8.736;2024-02-21T00:22:38;8.53;;;3.60;;
10458;SDS011;5277;48.722;8.736;2024-02-21T00:25:03;10.53;;;3.97;;
10458;SDS011;5277;48.722;8.736;2024-02-21T00:27:29;18.43;;;4.23;;
10458;SDS011;5277;48.722;8.736;2024-02-21T00:29:56;9.17;;;3.83;;
10458;SDS011;5277;48.722;8.736;2024-02-21T00:32:21;8.53;;;3.90;;
10458;SDS011;5277;48.722;8.736;2024-02-21T00:34:47;9.67;;;3.90;;
10458;SDS011;5277;48.722;8.736;2024-02-21T00:37:12;9.00;;;3.80;;
10458;SDS011;5277;48.722;8.736;2024-02-21T00:39:38;8.90;;;3.43;;
10458;SDS011;5277;48.722;8.736;2024-02-21T00:42:04;8.77;;;3.63;;
10458;SDS011;5277;48.722;8.736;2024-02-21T00:44:29;6.87;;;4.13;;
10458;SDS011;5277;48.722;8.736;2024-02-21T00:46:55;10.63;;;4.10;;
10458;SDS011;5277;48.722;8.736;2024-02-21T00:49:21;9.30;;;3.97;;
10458;SDS011;5277;48.722;8.736;2024-02-21T00:51:46;9.13;;;3.40;;
10458;SDS011;5277;48.722;8.736;2024-02-21T00:54:12;10.97;;;3.70;;
10458;SDS011;5277;48.722;8.736;2024-02-21T00:56:38;7.10;;;3.70;;
10458;SDS011;5277;48.722;8.736;2024-02-21T00:59:03;7.53;;;3.43;;
10458;SDS011;5277;48.722;8.736;2024-02-21T01:01:29;10.13;;;3.77;;
10458;SDS011;5277;48.722;8.736;2024-02-21T01:03:54;9.43;;;3.80;;
10458;SDS011;5277;48.722;8.736;2024-02-21T01:06:20;13.80;;;4.57;;
10458;SDS011;5277;48.722;8.736;2024-02-21T01:08:46;11.47;;;3.90;;
10458;SDS011;5277;48.722;8.736;2024-02-21T01:11:13;8.43;;;4.00;;
10458;SDS011;5277;48.722;8.736;2024-02-21T01:13:41;11.20;;;4.10;;
10458;SDS011;5277;48.722;8.736;2024-02-21T01:16:07;7.47;;;3.30;;
10458;SDS011;5277;48.722;8.736;2024-02-21T01:18:38;10.03;;;3.63;;
10458;SDS011;5277;48.722;8.736;2024-02-21T01:21:04;6.30;;;3.27;;
10458;SDS011;5277;48.722;8.736;2024-02-21T01:23:32;10.80;;;3.93;;
10458;SDS011;5277;48.722;8.736;2024-02-21T01:26:01;9.50;;;4.50;;
10458;SDS011;5277;48.722;8.736;2024-02-21T01:28:27;10.30;;;3.90;;
10458;SDS011;5277;48.722;8.736;2024-02-21T01:30:53;8.10;;;3.90;;
10458;SDS011;5277;48.722;8.736;2024-02-21T01:33:18;6.70;;;3.60;;
10458;SDS011;5277;48.722;8.736;2024-02-21T01:35:44;9.70;;;3.73;;
10458;SDS011;5277;48.722;8.736;2024-02-21T01:38:10;7.07;;;3.97;;
10458;SDS011;5277;48.722;8.736;2024-02-21T01:40:37;10.43;;;3.67;;
10458;SDS011;5277;48.722;8.736;2024-02-21T01:43:03;12.93;;;3.50;;
10458;SDS011;5277;48.722;8.736;2024-02-21T01:45:29;9.43;;;3.47;;
10458;SDS011;5277;48.722;8.736;2024-02-21T01:47:54;9.13;;;3.27;;
10458;SDS011;5277;48.722;8.736;2024-02-21T01:50:20;7.67;;;3.63;;
10458;SDS011;5277;48.722;8.736;2024-02-21T01:52:48;13.30;;;3.57;;
10458;SDS011;5277;48.722;8.736;2024-02-21T01:55:15;9.43;;;2.93;;
10458;SDS011;5277;48.722;8.736;2024-02-21T01:57:41;8.50;;;3.50;;
10458;SDS011;5277;48.722;8.736;2024-02-21T02:00:11;6.50;;;3.33;;
10458;SDS011;5277;48.722;8.736;2024-02-21T02:02:38;10.17;;;3.53;;
10458;SDS011;5277;48.722;8.736;2024-02-21T02:05:04;7.83;;;3.23;;
10458;SDS011;5277;48.722;8.736;2024-02-21T02:07:31;14.93;;;3.63;;
10458;SDS011;5277;48.722;8.736;2024-02-21T02:09:57;11.43;;;3.70;;
10458;SDS011;5277;48.722;8.736;2024-02-21T02:12:22;10.60;;;3.40;;
10458;SDS011;5277;48.722;8.736;2024-02-21T02:15:10;12.00;;;4.20;;
10458;SDS011;5277;48.722;8.736;2024-02-21T02:17:34;11.23;;;3.37;;
10458;SDS011;5277;48.722;8.736;2024-02-21T02:20:00;7.47;;;3.23;;
10458;SDS011;5277;48.722;8.736;2024-02-21T02:22:28;6.60;;;3.40;;
10458;SDS011;5277;48.722;8.736;2024-02-21T02:24:54;6.63;;;3.23;;
10458;SDS011;5277;48.722;8.736;2024-02-21T02:27:20;8.87;;;3.70;;
10458;SDS011;5277;48.722;8.736;2024-02-21T02:29:47;7.53;;;3.00;;
10458;SDS011;5277;48.722;8.736;2024-02-21T02:32:13;9.30;;;3.40;;
10458;SDS011;5277;48.722;8.736;2024-02-21T02:34:39;9.23;;;4.10;;
10458;SDS011;5277;48.722;8.736;2024-02-21T02:37:05;9.13;;;3.63;;
10458;SDS011;5277;48.722;8.736;2024-02-21T02:39:36;7.97;;;3.00;;
10458;SDS011;5277;48.722;8.736;2024-02-21T02:42:01;10.30;;;4.07;;
10458;SDS011;5277;48.722;8.736;2024-02-21T02:44:33;7.07;;;3.77;;
10458;SDS011;5277;48.722;8.736;2024-02-21T02:46:58;9.10;;;3.37;;
10458;SDS011;5277;48.722;8.736;2024-02-21T02:49:26;10.53;;;3.50;;
10458;SDS011;5277;48.722;8.736;2024-02-21T02:51:55;7.63;;;3.63;;
10458;SDS011;5277;48.722;8.736;2024-02-21T02:54:26;9.70;;;3.20;;
10458;SDS011;5277;48.722;8.736;2024-02-21T02:57:04;7.17;;;2.80;;
10458;SDS011;5277;48.722;8.736;2024-02-21T02:59:30;7.37;;;3.13;;
10458;SDS011;5277;48.722;8.736;2024-02-21T03:01:57;8.30;;;3.17;;
10458;SDS011;5277;48.722;8.736;2024-02-21T03:04:23;7.50;;;3.00;;
10458;SDS011;5277;48.722;8.736;2024-02-21T03:06:48;7.87;;;3.00;;
10458;SDS011;5277;48.722;8.736;2024-02-21T03:09:14;6.70;;;2.60;;
10458;SDS011;5277;48.722;8.736;2024-02-21T03:11:40;7.73;;;3.03;;
10458;SDS011;5277;48.722;8.736;2024-02-21T03:14:08;8.13;;;3.07;;
10458;SDS011;5277;48.722;8.736;2024-02-21T03:16:34;7.03;;;3.07;;
10458;SDS011;5277;48.722;8.736;2024-02-21T03:18:59;11.33;;;3.10;;
10458;SDS011;5277;48.722;8.736;2024-02-21T03:21:25;9.17;;;3.03;;
10458;SDS011;5277;48.722;8.736;2024-02-21T03:23:50;10.67;;;3.10;;
10458;SDS011;5277;48.722;8.736;2024-02-21T03:26:16;12.07;;;3.23;;
10458;SDS011;5277;48.722;8.736;2024-02-21T03:28:42;5.53;;;2.53;;
10458;SDS011;5277;48.722;8.736;2024-02-21T03:31:11;4.50;;;2.80;;
10458;SDS011;5277;48.722;8.736;2024-02-21T03:33:38;9.37;;;3.33;;
10458;SDS011;5277;48.722;8.736;2024-02-21T03:36:05;8.10;;;2.70;;
10458;SDS011;5277;48.722;8.736;2024-02-21T03:38:37;9.13;;;2.80;;
10458;SDS011;5277;48.722;8.736;2024-02-21T03:41:03;7.47;;;3.03;;
10458;SDS011;5277;48.722;8.736;2024-02-21T03:43:29;11.07;;;3.60;;
10458;SDS011;5277;48.722;8.736;2024-02-21T03:45:54;8.20;;;2.87;;
10458;SDS011;5277;48.722;8.736;2024-02-21T03:48:20;5.27;;;2.70;;
10458;SDS011;5277;48.722;8.736;2024-02-21T03:50:45;10.03;;;3.10;;
10458;SDS011;5277;48.722;8.736;2024-02-21T03:53:11;9.50;;;3.43;;
10458;SDS011;5277;48.722;8.736;2024-02-21T03:55:37;6.93;;;3.10;;
10458;SDS011;5277;48.722;8.736;2024-02-21T03:58:03;14.43;;;3.03;;
10458;SDS011;5277;48.722;8.736;2024-02-21T04:00:28;11.87;;;3.37;;
10458;SDS011;5277;48.722;8.736;2024-02-21T04:02:54;5.20;;;2.77;;
10458;SDS011;5277;48.722;8.736;2024-02-21T04:05:23;8.00;;;3.13;;
10458;SDS011;5277;48.722;8.736;2024-02-21T04:07:52;6.60;;;2.93;;
10458;SDS011;5277;48.722;8.736;2024-02-21T04:10:20;7.93;;;3.00;;
10458;SDS011;5277;48.722;8.736;2024-02-21T04:12:45;7.50;;;2.57;;
10458;SDS011;5277;48.722;8.736;2024-02-21T04:15:11;8.73;;;3.07;;
10458;SDS011;5277;48.722;8.736;2024-02-21T04:17:37;6.77;;;2.73;;
10458;SDS011;5277;48.722;8.736;2024-02-21T04:20:03;7.93;;;2.97;;
10458;SDS011;5277;48.722;8.736;2024-02-21T04:22:35;9.17;;;3.17;;
10458;SDS011;5277;48.722;8.736;2024-02-21T04:25:01;6.10;;;3.10;;
10458;SDS011;5277;48.722;8.736;2024-02-21T04:27:27;5.07;;;2.57;;
10458;SDS011;5277;48.722;8.736;2024-02-21T04:29:53;5.60;;;2.93;;
10458;SDS011;5277;48.722;8.736;2024-02-21T04:32:22;4.97;;;3.00;;
10458;SDS011;5277;48.722;8.736;2024-02-21T04:34:52;7.23;;;3.17;;
10458;SDS011;5277;48.722;8.736;2024-02-21T04:37:18;6.30;;;3.07;;
10458;SDS011;5277;48.722;8.736;2024-02-21T04:39:43;7.70;;;3.77;;
10458;SDS011;5277;48.722;8.736;2024-02-21T04:42:09;14.43;;;3.87;;
10458;SDS011;5277;48.722;8.736;2024-02-21T04:44:35;7.77;;;2.87;;
10458;SDS011;5277;48.722;8.736;2024-02-21T04:47:01;10.33;;;3.90;;
10458;SDS011;5277;48.722;8.736;2024-02-21T04:49:28;10.50;;;3.40;;
10458;SDS011;5277;48.722;8.736;2024-02-21T04:51:54;10.60;;;3.43;;
10458;SDS011;5277;48.722;8.736;2024-02-21T04:54:20;9.67;;;3.43;;
10458;SDS011;5277;48.722;8.736;2024-02-21T04:56:45;7.77;;;3.40;;
10458;SDS011;5277;48.722;8.736;2024-02-21T04:59:11;10.23;;;3.23;;
10458;SDS011;5277;48.722;8.736;2024-02-21T05:01:37;7.43;;;2.97;;
10458;SDS011;5277;48.722;8.736;2024-02-21T05:04:07;9.47;;;3.17;;
10458;SDS011;5277;48.722;8.736;2024-02-21T05:06:42;9.57;;;2.73;;
10458;SDS011;5277;48.722;8.736;2024-02-21T05:09:10;5.90;;;2.70;;
10458;SDS011;5277;48.722;8.736;2024-02-21T05:11:36;7.43;;;3.60;;
10458;SDS011;5277;48.722;8.736;2024-02-21T05:14:03;7.77;;;2.50;;
10458;SDS011;5277;48.722;8.736;2024-02-21T05:16:31;6.23;;;2.57;;
10458;SDS011;5277;48.722;8.736;2024-02-21T05:18:57;6.37;;;3.17;;
10458;SDS011;5277;48.722;8.736;2024-02-21T05:21:23;6.67;;;3.20;;
10458;SDS011;5277;48.722;8.736;2024-02-21T05:23:49;7.13;;;3.13;;
10458;SDS011;5277;48.722;8.736;2024-02-21T05:26:22;9.50;;;3.67;;
10458;SDS011;5277;48.722;8.736;2024-02-21T05:28:49;9.60;;;3.10;;
10458;SDS011;5277;48.722;8.736;2024-02-21T05:31:15;10.70;;;2.93;;
10458;SDS011;5277;48.722;8.736;2024-02-21T05:33:54;5.17;;;3.13;;
10458;SDS011;5277;48.722;8.736;2024-02-21T05:36:22;6.40;;;2.63;;
10458;SDS011;5277;48.722;8.736;2024-02-21T05:38:48;10.10;;;3.80;;
10458;SDS011;5277;48.722;8.736;2024-02-21T05:41:14;8.67;;;3.07;;
10458;SDS011;5277;48.722;8.736;2024-02-21T05:43:40;4.87;;;2.77;;
10458;SDS011;5277;48.722;8.736;2024-02-21T05:46:05;7.57;;;3.23;;
10458;SDS011;5277;48.722;8.736;2024-02-21T05:48:34;8.70;;;3.60;;
10458;SDS011;5277;48.722;8.736;2024-02-21T05:51:01;12.30;;;3.27;;
10458;SDS011;5277;48.722;8.736;2024-02-21T05:53:27;6.70;;;3.20;;
10458;SDS011;5277;48.722;8.736;2024-02-21T05:55:52;9.43;;;3.20;;
10458;SDS011;5277;48.722;8.736;2024-02-21T05:58:18;5.53;;;3.00;;
10458;SDS011;5277;48.722;8.736;2024-02-21T06:00:44;5.57;;;2.57;;
10458;SDS011;5277;48.722;8.736;2024-02-21T06:03:09;9.77;;;3.00;;
10458;SDS011;5277;48.722;8.736;2024-02-21T06:05:38;8.27;;;3.03;;
10458;SDS011;5277;48.722;8.736;2024-02-21T06:08:04;13.20;;;3.57;;
10458;SDS011;5277;48.722;8.736;2024-02-21T06:10:30;5.10;;;2.43;;
10458;SDS011;5277;48.722;8.736;2024-02-21T06:12:55;8.33;;;2.77;;
10458;SDS011;5277;48.722;8.736;2024-02-21T06:15:21;6.50;;;3.10;;
10458;SDS011;5277;48.722;8.736;2024-02-21T06:17:47;4.30;;;2.80;;
10458;SDS011;5277;48.722;8.736;2024-02-21T06:20:12;7.07;;;3.00;;
10458;SDS011;5277;48.722;8.736;2024-02-21T06:22:38;4.10;;;3.17;;
10458;SDS011;5277;48.722;8.736;2024-02-21T06:25:04;7.93;;;3.20;;
10458;SDS011;5277;48.722;8.736;2024-02-21T06:27:30;6.97;;;3.03;;
10458;SDS011;5277;48.722;8.736;2024-02-21T06:29:55;6.70;;;3.10;;
10458;SDS011;5277;48.722;8.736;2024-02-21T06:32:21;6.13;;;3.23;;
10458;SDS011;5277;48.722;8.736;2024-02-21T06:34:47;6.97;;;3.37;;
10458;SDS011;5277;48.722;8.736;2024-02-21T06:37:12;10.17;;;3.10;;
10458;SDS011;5277;48.722;8.736;2024-02-21T06:39:38;9.17;;;3.23;;
10458;SDS011;5277;48.722;8.736;2024-02-21T06:42:05;10.57;;;2.90;;
10458;SDS011;5277;48.722;8.736;2024-02-21T06:44:31;8.97;;;3.50;;
10458;SDS011;5277;48.722;8.736;2024-02-21T06:47:01;5.73;;;3.23;;
10458;SDS011;5277;48.722;8.736;2024-02-21T06:49:27;11.43;;;4.40;;
10458;SDS011;5277;48.722;8.736;2024-02-21T06:51:52;12.67;;;3.53;;
10458;SDS011;5277;48.722;8.736;2024-02-21T06:54:18;8.70;;;3.60;;
10458;SDS011;5277;48.722;8.736;2024-02-21T06:56:43;9.67;;;4.47;;
10458;SDS011;5277;48.722;8.736;2024-02-21T06:59:09;8.37;;;3.90;;
10458;SDS011;5277;48.722;8.736;2024-02-21T07:01:35;11.20;;;4.27;;
10458;SDS011;5277;48.722;8.736;2024-02-21T07:04:01;11.37;;;4.03;;
10458;SDS011;5277;48.722;8.736;2024-02-21T07:06:26;8.23;;;3.77;;
10458;SDS011;5277;48.722;8.736;2024-02-21T07:08:52;7.00;;;3.60;;
10458;SDS011;5277;48.722;8.736;2024-02-21T07:11:18;8.23;;;3.80;;
10458;SDS011;5277;48.722;8.736;2024-02-21T07:13:45;8.67;;;3.93;;
10458;SDS011;5277;48.722;8.736;2024-02-21T07:16:14;10.90;;;4.00;;
10458;SDS011;5277;48.722;8.736;2024-02-21T07:18:39;7.10;;;3.67;;
10458;SDS011;5277;48.722;8.736;2024-02-21T07:21:05;5.77;;;3.47;;
10458;SDS011;5277;48.722;8.736;2024-02-21T07:23:30;6.37;;;3.20;;
10458;SDS011;5277;48.722;8.736;2024-02-21T07:25:56;7.27;;;3.33;;
10458;SDS011;5277;48.722;8.736;2024-02-21T07:28:22;6.47;;;3.27;;
10458;SDS011;5277;48.722;8.736;2024-02-21T07:30:47;8.77;;;3.53;;
10458;SDS011;5277;48.722;8.736;2024-02-21T07:33:13;6.20;;;3.50;;
10458;SDS011;5277;48.722;8.736;2024-02-21T07:35:39;11.33;;;3.63;;
10458;SDS011;5277;48.722;8.736;2024-02-21T07:38:06;8.77;;;3.87;;
10458;SDS011;5277;48.722;8.736;2024-02-21T07:40:37;5.07;;;3.00;;
10458;SDS011;5277;48.722;8.736;2024-02-21T07:43:03;6.07;;;3.00;;
10458;SDS011;5277;48.722;8.736;2024-02-21T07:45:28;9.20;;;3.30;;
10458;SDS011;5277;48.722;8.736;2024-02-21T07:47:54;7.60;;;3.57;;
10458;SDS011;5277;48.722;8.736;2024-02-21T07:50:19;8.00;;;3.27;;
10458;SDS011;5277;48.722;8.736;2024-02-21T07:52:45;9.00;;;3.43;;
10458;SDS011;5277;48.722;8.736;2024-02-21T07:55:11;7.17;;;2.77;;
10458;SDS011;5277;48.722;8.736;2024-02-21T07:57:36;9.23;;;3.60;;
10458;SDS011;5277;48.722;8.736;2024-02-21T08:00:02;8.70;;;3.50;;
10458;SDS011;5277;48.722;8.736;2024-02-21T08:02:34;7.73;;;3.00;;
10458;SDS011;5277;48.722;8.736;2024-02-21T08:05:00;8.83;;;3.07;;
10458;SDS011;5277;48.722;8.736;2024-02-21T08:07:25;7.67;;;3.00;;
10458;SDS011;5277;48.722;8.736;2024-02-21T08:09:54;7.37;;;2.70;;
10458;SDS011;5277;48.722;8.736;2024-02-21T08:12:19;7.07;;;2.43;;
10458;SDS011;5277;48.722;8.736;2024-02-21T08:14:45;7.05;;;2.88;;
10458;SDS011;5277;48.722;8.736;2024-02-21T08:17:10;5.33;;;2.60;;
10458;SDS011;5277;48.722;8.736;2024-02-21T08:19:36;9.53;;;3.30;;
10458;SDS011;5277;48.722;8.736;2024-02-21T08:22:02;8.05;;;3.00;;
10458;SDS011;5277;48.722;8.736;2024-02-21T08:24:28;5.07;;;2.70;;
10458;SDS011;5277;48.722;8.736;2024-02-21T08:26:54;4.50;;;2.47;;
10458;SDS011;5277;48.722;8.736;2024-02-21T08:29:19;11.48;;;2.90;;
10458;SDS011;5277;48.722;8.736;2024-02-21T08:31:45;8.45;;;2.78;;
10458;SDS011;5277;48.722;8.736;2024-02-21T08:34:11;9.33;;;2.53;;
10458;SDS011;5277;48.722;8.736;2024-02-21T08:36:38;5.47;;;2.50;;
10458;SDS011;5277;48.722;8.736;2024-02-21T08:39:03;7.90;;;2.72;;
10458;SDS011;5277;48.722;8.736;2024-02-21T08:41:33;7.40;;;2.88;;
10458;SDS011;5277;48.722;8.736;2024-02-21T08:43:59;8.32;;;2.58;;
10458;SDS011;5277;48.722;8.736;2024-02-21T08:46:25;9.98;;;3.45;;
10458;SDS011;5277;48.722;8.736;2024-02-21T08:48:51;8.32;;;3.00;;
10458;SDS011;5277;48.722;8.736;2024-02-21T08:51:18;5.88;;;2.42;;
10458;SDS011;5277;48.722;8.736;2024-02-21T08:53:44;6.90;;;2.45;;
10458;SDS011;5277;48.722;8.736;2024-02-21T08:56:13;4.53;;;2.15;;
10458;SDS011;5277;48.722;8.736;2024-02-21T08:58:39;6.88;;;2.65;;
10458;SDS011;5277;48.722;8.736;2024-02-21T09:01:07;5.95;;;2.08;;
10458;SDS011;5277;48.722;8.736;2024-02-21T09:03:36;5.05;;;2.17;;
10458;SDS011;5277;48.722;8.736;2024-02-21T09:06:03;4.00;;;2.20;;
10458;SDS011;5277;48.722;8.736;2024-02-21T09:08:30;4.85;;;2.45;;
10458;SDS011;5277;48.722;8.736;2024-02-21T09:10:55;9.98;;;2.55;;
10458;SDS011;5277;48.722;8.736;2024-02-21T09:13:21;8.85;;;2.13;;
10458;SDS011;5277;48.722;8.736;2024-02-21T09:15:47;4.07;;;2.03;;
10458;SDS011;5277;48.722;8.736;2024-02-21T09:18:13;5.35;;;2.13;;
10458;SDS011;5277;48.722;8.736;2024-02-21T09:20:39;4.78;;;2.15;;
10458;SDS011;5277;48.722;8.736;2024-02-21T09:23:05;6.93;;;2.25;;
10458;SDS011;5277;48.722;8.736;2024-02-21T09:25:30;5.38;;;2.30;;
10458;SDS011;5277;48.722;8.736;2024-02-21T09:27:56;6.22;;;2.20;;
10458;SDS011;5277;48.722;8.736;2024-02-21T09:30:23;3.55;;;1.92;;
10458;SDS011;5277;48.722;8.736;2024-02-21T09:32:49;5.25;;;1.95;;
10458;SDS011;5277;48.722;8.736;2024-02-21T09:35:15;4.53;;;2.33;;
10458;SDS011;5277;48.722;8.736;2024-02-21T09:37:41;7.30;;;2.22;;
10458;SDS011;5277;48.722;8.736;2024-02-21T09:40:06;8.43;;;2.15;;
10458;SDS011;5277;48.722;8.736;2024-02-21T09:42:40;5.00;;;2.22;;
10458;SDS011;5277;48.722;8.736;2024-02-21T09:55:13;6.68;;;1.92;;
10458;SDS011;5277;48.722;8.736;2024-02-21T09:57:40;8.90;;;2.28;;
10458;SDS011;5277;48.722;8.736;2024-02-21T10:00:06;4.57;;;2.17;;
10458;SDS011;5277;48.722;8.736;2024-02-21T10:02:33;7.20;;;2.58;;
10458;SDS011;5277;48.722;8.736;2024-02-21T10:04:59;5.75;;;2.55;;
10458;SDS011;5277;48.722;8.736;2024-02-21T10:07:24;5.35;;;2.15;;
10458;SDS011;5277;48.722;8.736;2024-02-21T10:10:00;6.03;;;2.40;;
10458;SDS011;5277;48.722;8.736;2024-02-21T10:12:26;4.38;;;2.10;;
10458;SDS011;5277;48.722;8.736;2024-02-21T10:15:02;10.45;;;2.42;;
10458;SDS011;5277;48.722;8.736;2024-02-21T10:17:28;11.00;;;2.22;;
10458;SDS011;5277;48.722;8.736;2024-02-21T10:19:53;7.40;;;1.98;;
10458;SDS011;5277;48.722;8.736;2024-02-21T10:22:19;8.77;;;2.25;;
10458;SDS011;5277;48.722;8.736;2024-02-21T10:24:48;4.55;;;1.90;;
10458;SDS011;5277;48.722;8.736;2024-02-21T10:27:14;5.43;;;2.20;;
10458;SDS011;5277;48.722;8.736;2024-02-21T10:29:40;8.27;;;2.20;;
10458;SDS011;5277;48.722;8.736;2024-02-21T10:34:33;6.35;;;2.03;;
10458;SDS011;5277;48.722;8.736;2024-02-21T10:37:00;5.10;;;2.30;;
10458;SDS011;5277;48.722;8.736;2024-02-21T10:39:30;7.18;;;1.70;;
10458;SDS011;5277;48.722;8.736;2024-02-21T10:42:00;7.20;;;1.83;;
10458;SDS011;5277;48.722;8.736;2024-02-21T10:44:30;10.30;;;1.77;;
10458;SDS011;5277;48.722;8.736;2024-02-21T10:47:03;5.00;;;1.70;;
10458;SDS011;5277;48.722;8.736;2024-02-21T10:49:39;8.02;;;1.83;;
10458;SDS011;5277;48.722;8.736;2024-02-21T10:52:06;7.53;;;2.25;;
10458;SDS011;5277;48.722;8.736;2024-02-21T10:54:55;5.65;;;1.83;;
10458;SDS011;5277;48.722;8.736;2024-02-21T10:57:23;5.25;;;2.00;;
10458;SDS011;5277;48.722;8.736;2024-02-21T10:59:52;5.63;;;1.67;;
10458;SDS011;5277;48.722;8.736;2024-02-21T11:02:19;6.20;;;1.80;;
10458;SDS011;5277;48.722;8.736;2024-02-21T11:04:45;4.65;;;2.10;;
10458;SDS011;5277;48.722;8.736;2024-02-21T11:07:12;3.78;;;1.45;;
10458;SDS011;5277;48.722;8.736;2024-02-21T11:09:40;3.72;;;1.85;;
10458;SDS011;5277;48.722;8.736;2024-02-21T11:12:19;9.10;;;2.13;;
10458;SDS011;5277;48.722;8.736;2024-02-21T11:14:47;8.20;;;1.77;;
10458;SDS011;5277;48.722;8.736;2024-02-21T11:17:17;7.97;;;2.35;;
10458;SDS011;5277;48.722;8.736;2024-02-21T11:19:43;4.38;;;2.15;;
10458;SDS011;5277;48.722;8.736;2024-02-21T11:22:16;6.60;;;1.75;;
10458;SDS011;5277;48.722;8.736;2024-02-21T11:24:43;5.82;;;2.03;;
10458;SDS011;5277;48.722;8.736;2024-02-21T11:29:44;6.25;;;1.60;;
10458;SDS011;5277;48.722;8.736;2024-02-21T11:32:16;4.75;;;1.48;;
10458;SDS011;5277;48.722;8.736;2024-02-21T11:37:44;7.85;;;1.90;;
10458;SDS011;5277;48.722;8.736;2024-02-21T11:40:11;2.97;;;1.48;;
10458;SDS011;5277;48.722;8.736;2024-02-21T11:42:37;4.07;;;1.33;;
10458;SDS011;5277;48.722;8.736;2024-02-21T11:45:03;4.68;;;1.75;;
10458;SDS011;5277;48.722;8.736;2024-02-21T11:47:29;5.68;;;1.50;;
10458;SDS011;5277;48.722;8.736;2024-02-21T11:49:55;5.22;;;1.65;;
10458;SDS011;5277;48.722;8.736;2024-02-21T11:52:24;2.85;;;1.25;;
10458;SDS011;5277;48.722;8.736;2024-02-21T11:54:51;6.38;;;1.48;;
10458;SDS011;5277;48.722;8.736;2024-02-21T11:57:22;6.22;;;1.65;;
10458;SDS011;5277;48.722;8.736;2024-02-21T11:59:48;3.80;;;1.27;;
10458;SDS011;5277;48.722;8.736;2024-02-21T12:02:14;1.95;;;1.10;;
10458;SDS011;5277;48.722;8.736;2024-02-21T12:04:41;3.13;;;1.02;;
10458;SDS011;5277;48.722;8.736;2024-02-21T12:07:08;4.68;;;1.40;;
10458;SDS011;5277;48.722;8.736;2024-02-21T12:09:34;5.35;;;1.50;;
10458;SDS011;5277;48.722;8.736;2024-02-21T12:12:03;3.72;;;1.20;;
10458;SDS011;5277;48.722;8.736;2024-02-21T12:14:30;4.35;;;1.17;;
10458;SDS011;5277;48.722;8.736;2024-02-21T12:16:58;2.05;;;1.10;;
10458;SDS011;5277;48.722;8.736;2024-02-21T12:19:24;4.00;;;1.10;;
10458;SDS011;5277;48.722;8.736;2024-02-21T12:21:50;1.63;;;0.90;;
10458;SDS011;5277;48.722;8.736;2024-02-21T12:24:17;3.80;;;1.15;;
10458;SDS011;5277;48.722;8.736;2024-02-21T12:26:47;2.60;;;1.10;;
10458;SDS011;5277;48.722;8.736;2024-02-21T12:29:12;2.95;;;1.13;;
10458;SDS011;5277;48.722;8.736;2024-02-21T12:31:38;2.28;;;0.95;;
10458;SDS011;5277;48.722;8.736;2024-02-21T12:34:04;2.03;;;1.10;;
10458;SDS011;5277;48.722;8.736;2024-02-21T12:36:35;2.88;;;0.95;;
10458;SDS011;5277;48.722;8.736;2024-02-21T12:39:24;3.80;;;1.10;;
10458;SDS011;5277;48.722;8.736;2024-02-21T12:41:52;3.15;;;1.08;;
10458;SDS011;5277;48.722;8.736;2024-02-21T12:44:19;1.70;;;0.90;;
10458;SDS011;5277;48.722;8.736;2024-02-21T12:46:44;3.95;;;0.80;;
10458;SDS011;5277;48.722;8.736;2024-02-21T12:49:10;3.75;;;1.00;;
10458;SDS011;5277;48.722;8.736;2024-02-21T12:51:36;4.93;;;1.00;;
10458;SDS011;5277;48.722;8.736;2024-02-21T12:54:03;1.35;;;0.80;;
10458;SDS011;5277;48.722;8.736;2024-02-21T12:56:28;1.50;;;0.80;;
10458;SDS011;5277;48.722;8.736;2024-02-21T12:58:56;2.17;;;0.80;;
10458;SDS011;5277;48.722;8.736;2024-02-21T13:01:22;2.45;;;0.82;;
10458;SDS011;5277;48.722;8.736;2024-02-21T13:03:47;5.30;;;1.23;;
10458;SDS011;5277;48.722;8.736;2024-02-21T13:06:13;4.88;;;1.70;;
10458;SDS011;5277;48.722;8.736;2024-02-21T13:08:39;3.40;;;1.02;;
10458;SDS011;5277;48.722;8.736;2024-02-21T13:11:06;5.95;;;1.05;;
10458;SDS011;5277;48.722;8.736;2024-02-21T13:13:31;2.03;;;0.63;;
10458;SDS011;5277;48.722;8.736;2024-02-21T13:15:57;2.03;;;0.90;;
10458;SDS011;5277;48.722;8.736;2024-02-21T13:18:24;3.70;;;1.05;;
10458;SDS011;5277;48.722;8.736;2024-02-21T13:20:49;3.15;;;1.10;;
10458;SDS011;5277;48.722;8.736;2024-02-21T13:23:15;3.17;;;0.95;;
10458;SDS011;5277;48.722;8.736;2024-02-21T13:25:40;2.95;;;1.08;;
10458;SDS011;5277;48.722;8.736;2024-02-21T13:28:06;6.93;;;0.90;;
10458;SDS011;5277;48.722;8.736;2024-02-21T13:30:32;2.67;;;0.80;;
10458;SDS011;5277;48.722;8.736;2024-02-21T13:32:58;3.55;;;1.40;;
10458;SDS011;5277;48.722;8.736;2024-02-21T13:35:23;2.22;;;0.90;;
10458;SDS011;5277;48.722;8.736;2024-02-21T13:37:49;1.17;;;0.70;;
10458;SDS011;5277;48.722;8.736;2024-02-21T13:40:15;1.42;;;0.80;;
10458;SDS011;5277;48.722;8.736;2024-02-21T13:42:41;1.85;;;1.00;;
10458;SDS011;5277;48.722;8.736;2024-02-21T13:45:08;4.43;;;0.90;;
10458;SDS011;5277;48.722;8.736;2024-02-21T13:47:34;1.33;;;0.73;;
10458;SDS011;5277;48.722;8.736;2024-02-21T13:50:04;1.73;;;0.73;;
10458;SDS011;5277;48.722;8.736;2024-02-21T13:52:34;1.95;;;0.90;;
10458;SDS011;5277;48.722;8.736;2024-02-21T13:54:59;1.05;;;0.60;;
10458;SDS011;5277;48.722;8.736;2024-02-21T13:57:25;1.58;;;0.73;;
10458;SDS011;5277;48.722;8.736;2024-02-21T13:59:51;2.15;;;0.90;;
10458;SDS011;5277;48.722;8.736;2024-02-21T14:02:16;4.80;;;0.88;;
10458;SDS011;5277;48.722;8.736;2024-02-21T14:04:43;1.65;;;0.80;;
10458;SDS011;5277;48.722;8.736;2024-02-21T14:07:09;1.48;;;0.70;;
10458;SDS011;5277;48.722;8.736;2024-02-21T14:09:34;2.78;;;0.77;;
10458;SDS011;5277;48.722;8.736;2024-02-21T14:12:00;1.65;;;0.70;;
10458;SDS011;5277;48.722;8.736;2024-02-21T14:14:25;2.28;;;0.80;;
10458;SDS011;5277;48.722;8.736;2024-02-21T14:16:54;3.53;;;0.85;;
10458;SDS011;5277;48.722;8.736;2024-02-21T14:19:21;0.90;;;0.60;;
10458;SDS011;5277;48.722;8.736;2024-02-21T14:21:46;2.05;;;0.75;;
10458;SDS011;5277;48.722;8.736;2024-02-21T14:24:12;1.30;;;0.70;;
10458;SDS011;5277;48.722;8.736;2024-02-21T14:26:38;0.93;;;0.73;;
10458;SDS011;5277;48.722;8.736;2024-02-21T14:29:06;2.33;;;0.65;;
10458;SDS011;5277;48.722;8.736;2024-02-21T14:31:32;3.30;;;0.90;;
10458;SDS011;5277;48.722;8.736;2024-02-21T14:33:57;2.13;;;0.95;;
10458;SDS011;5277;48.722;8.736;2024-02-21T14:36:23;2.15;;;0.93;;
10458;SDS011;5277;48.722;8.736;2024-02-21T14:38:51;1.60;;;0.80;;
10458;SDS011;5277;48.722;8.736;2024-02-21T14:41:17;2.55;;;0.63;;
10458;SDS011;5277;48.722;8.736;2024-02-21T14:43:46;5.82;;;0.70;;
10458;SDS011;5277;48.722;8.736;2024-02-21T14:46:11;1.25;;;0.82;;
10458;SDS011;5277;48.722;8.736;2024-02-21T14:48:37;1.42;;;0.80;;
10458;SDS011;5277;48.722;8.736;2024-02-21T14:51:03;3.25;;;1.00;;
10458;SDS011;5277;48.722;8.736;2024-02-21T14:53:29;2.20;;;1.20;;
10458;SDS011;5277;48.722;8.736;2024-02-21T14:55:55;3.33;;;1.35;;
10458;SDS011;5277;48.722;8.736;2024-02-21T14:58:22;2.08;;;1.33;;
10458;SDS011;5277;48.722;8.736;2024-02-21T15:00:49;5.15;;;1.80;;
10458;SDS011;5277;48.722;8.736;2024-02-21T15:03:18;4.07;;;1.77;;
10458;SDS011;5277;48.722;8.736;2024-02-21T15:05:46;4.22;;;1.42;;
10458;SDS011;5277;48.722;8.736;2024-02-21T15:08:12;2.17;;;1.38;;
10458;SDS011;5277;48.722;8.736;2024-02-21T15:10:41;2.42;;;1.10;;
10458;SDS011;5277;48.722;8.736;2024-02-21T15:13:10;2.08;;;1.25;;
10458;SDS011;5277;48.722;8.736;2024-02-21T15:15:36;5.35;;;1.50;;